Flight Track Log - Related Links

Times and Time Zones

All times are in EDT time to prevent confusion due to time zone crossing. See the DAL2391 flight status page for this flight to view local times or setup timezone preferences in your user account.


Time Position Orientation Groundspeed Altitude Reporting Facility
EDT Latitude Longitude Course Direction KTS MPH feet Rate Location/Type
Sun 07:40:39 PM 40.6500 -73.8667 210° Southwest 222 255 2,300  Level New York TRACON
Sun 07:41:39 PM 40.5833 -73.9167 207° Southwest 238 274 4,900 2,895 Climbing New York TRACON
Sun 07:42:33 PM 40.5333 -73.9500 221° Southwest 270 311 7,800 2,707 Climbing New York TRACON
Sun 07:44:23 PM 40.4236 -74.0753 237° Southwest 274 315 12,300 2,224 Climbing New York Center
Sun 07:45:23 PM 40.3794 -74.1658 235° Southwest 318 366 14,100 2,231 Climbing New York Center
Sun 07:46:24 PM 40.3200 -74.2772 236° Southwest 338 389 16,800 1,438 Climbing New York Center
Sun 07:47:24 PM 40.2733 -74.3672 246° West 343 395 17,000 895 Climbing New York Center
Sun 07:49:25 PM 40.1928 -74.6075 264° West 348 400 19,500 1,073 Climbing New York Center
Sun 07:50:23 PM 40.1822 -74.7403 265° West 394 453 20,200 1,017 Climbing New York Center
Sun 07:51:23 PM 40.1728 -74.8944 264° West 423 487 21,500 1,636 Climbing New York Center
Sun 07:52:24 PM 40.1581 -75.0728 264° West 444 511 23,500 1,918 Climbing New York Center
Sun 07:53:25 PM 40.1458 -75.2322 258° West 444 511 25,400 1,261 Climbing New York Center
Sun 07:54:23 PM 40.1214 -75.3828 229° Southwest 439 505 26,000 305 Climbing New York Center
Sun 07:55:23 PM 40.0458 -75.4972 227° Southwest 408 470 26,000  Level New York Center
Sun 07:56:24 PM 39.9686 -75.6056 228° Southwest 408 470 26,000  Level New York Center
Sun 07:57:24 PM 39.8911 -75.7167 231° Southwest 408 470 26,000  Level New York Center
Sun 07:58:24 PM 39.8194 -75.8333 228° Southwest 414 476 26,000  Level New York Center
Sun 07:59:25 PM 39.7481 -75.9361 232° Southwest 426 490 26,000  Level New York Center
Sun 08:01:24 PM 39.5997 -76.1814 229° Southwest 416 479 26,000  Level Washington Center
Sun 08:02:25 PM 39.5242 -76.2936 232° Southwest 416 479 26,000  Level Washington Center
Sun 08:03:25 PM 39.4525 -76.4114 230° Southwest 416 479 26,000  Level Washington Center
Sun 08:04:26 PM 39.3786 -76.5258 230° Southwest 422 486 26,000  Level Washington Center
Sun 08:05:26 PM 39.3028 -76.6431 230° Southwest 427 491 26,000  Level Washington Center
Sun 08:06:24 PM 39.2286 -76.7572 231° Southwest 427 491 26,000  Level Washington Center
Sun 08:07:25 PM 39.1525 -76.8764 230° Southwest 427 491 26,000  Level Washington Center
Sun 08:08:25 PM 39.0783 -76.9900 224° Southwest 427 491 26,000  Level Washington Center
Sun 08:09:26 PM 38.9936 -77.0953 221° Southwest 427 491 26,000  Level Washington Center
Sun 08:10:24 PM 38.9047 -77.1947 220° Southwest 421 484 26,000  Level Washington Center
Sun 08:11:25 PM 38.8139 -77.2914 221° Southwest 421 484 26,000  Level Washington Center
Sun 08:12:25 PM 38.7269 -77.3878 220° Southwest 426 490 26,000  Level Washington Center
Sun 08:13:26 PM 38.6358 -77.4867 220° Southwest 426 490 26,000  Level Washington Center
Sun 08:14:26 PM 38.5467 -77.5825 220° Southwest 426 490 26,000  Level Washington Center
Sun 08:15:24 PM 38.4575 -77.6783 221° Southwest 426 490 26,000  Level Washington Center
Sun 08:16:24 PM 38.3703 -77.7739 219° Southwest 426 490 26,000  Level Washington Center
Sun 08:17:25 PM 38.2811 -77.8664 220° Southwest 420 483 26,000  Level Washington Center
Sun 08:18:26 PM 38.1958 -77.9589 220° Southwest 414 476 26,000  Level Washington Center
Sun 08:19:24 PM 38.1064 -78.0539 220° Southwest 414 476 26,000  Level Washington Center
Sun 08:20:25 PM 38.0189 -78.1458 220° Southwest 414 476 26,000  Level Washington Center
Sun 08:21:24 PM 37.9336 -78.2350 217° Southwest 409 471 26,000  Level Washington Center
Sun 08:22:24 PM 37.8419 -78.3214 216° Southwest 409 471 26,000  Level Washington Center
Sun 08:23:25 PM 37.7525 -78.4047 216° Southwest 409 471 26,000  Level Washington Center
Sun 08:24:25 PM 37.6692 -78.4803 218° Southwest 409 471 26,000  Level Washington Center
Sun 08:25:26 PM 37.5794 -78.5686 216° Southwest 409 471 26,000  Level Washington Center
Sun 08:26:24 PM 37.4897 -78.6517 215° Southwest 409 471 26,000  Level Washington Center
Sun 08:27:25 PM 37.4000 -78.7317 216° Southwest 409 471 26,000  Level Washington Center
Sun 08:28:25 PM 37.3103 -78.8142 217° Southwest 409 471 26,000  Level Washington Center
Sun 08:29:26 PM 37.2117 -78.9064 217° Southwest 409 471 26,000  Level Washington Center
Sun 08:30:26 PM 37.1239 -78.9886 217° Southwest 409 471 26,000  Level Washington Center
Sun 08:31:24 PM 37.0361 -79.0706 217° Southwest 404 465 26,000  Level Washington Center
Sun 08:32:24 PM 36.9503 -79.1525 216° Southwest 399 459 26,000  Level Washington Center
Sun 08:33:25 PM 36.8644 -79.2317 216° Southwest 399 459 26,000  Level Washington Center
Sun 08:34:26 PM 36.7850 -79.3031 217° Southwest 399 459 26,000  Level Washington Center
Sun 08:35:24 PM 36.6989 -79.3844 216° Southwest 399 459 26,000  Level Washington Center
Sun 08:36:25 PM 36.6089 -79.4656 215° Southwest 399 459 26,000  Level Washington Center
Sun 08:37:26 PM 36.5081 -79.5550 216° Southwest 390 449 26,000  Level Atlanta Center
Sun 08:38:26 PM 36.4214 -79.6344 216° Southwest 390 449 26,000  Level Atlanta Center
Sun 08:39:26 PM 36.3344 -79.7142 216° Southwest 395 455 26,000  Level Atlanta Center
Sun 08:40:26 PM 36.2456 -79.7936 215° Southwest 395 455 26,000  Level Atlanta Center
Sun 08:41:26 PM 36.1544 -79.8728 216° Southwest 395 455 26,000  Level Atlanta Center
Sun 08:42:26 PM 36.0756 -79.9436 207° Southwest 395 455 26,000  Level Atlanta Center
Sun 08:43:26 PM 35.9794 -80.0050 204° Southwest 395 455 26,000  Level Atlanta Center
Sun 08:44:26 PM 35.8769 -80.0614 200° South 395 455 26,000  Level Atlanta Center
Sun 08:45:26 PM 35.7764 -80.1072 202° Southwest 400 460 26,000  Level Atlanta Center
Sun 08:46:26 PM 35.6756 -80.1581 204° Southwest 400 460 26,000  Level Atlanta Center
Sun 08:47:26 PM 35.5731 -80.2139 202° Southwest 400 460 26,000  Level Atlanta Center
Sun 08:48:26 PM 35.4744 -80.2619 202° Southwest 391 450 26,000  Level Atlanta Center
Sun 08:49:26 PM 35.3636 -80.3181 202° Southwest 391 450 26,000  Level Atlanta Center
Sun 08:50:26 PM 35.2628 -80.3683 202° Southwest 391 450 26,000  Level Atlanta Center
Sun 08:51:57 PM 35.1103 -80.4439 202° Southwest 374 430 26,000  Level Jacksonville Center
Sun 08:52:58 PM 35.0111 -80.4925 203° Southwest 374 430 26,000  Level Jacksonville Center
Sun 08:53:57 PM 34.9139 -80.5433 201° Southwest 379 436 26,000  Level Jacksonville Center
Sun 08:54:58 PM 34.8189 -80.5889 200° South 374 430 26,000  Level Jacksonville Center
Sun 08:55:58 PM 34.7258 -80.6292 205° Southwest 368 423 26,000  Level Jacksonville Center
Sun 08:56:58 PM 34.6286 -80.6847 202° Southwest 373 429 26,000  Level Jacksonville Center
Sun 08:57:58 PM 34.5253 -80.7353 202° Southwest 389 448 26,000  Level Jacksonville Center
Sun 08:58:57 PM 34.4383 -80.7778 203° Southwest 389 448 26,000  Level Jacksonville Center
Sun 08:59:57 PM 34.3392 -80.8281 200° South 389 448 26,000  Level Jacksonville Center
Sun 09:00:58 PM 34.2333 -80.8758 202° Southwest 378 435 26,000  Level Jacksonville Center
Sun 09:01:57 PM 34.1361 -80.9231 202° Southwest 378 435 26,000  Level Jacksonville Center
Sun 09:02:57 PM 34.0367 -80.9706 202° Southwest 383 441 26,000  Level Jacksonville Center
Sun 09:03:57 PM 33.9372 -81.0178 201° Southwest 388 447 26,000  Level Jacksonville Center
Sun 09:04:57 PM 33.8461 -81.0597 203° Southwest 388 447 26,000  Level Jacksonville Center
Sun 09:05:57 PM 33.7403 -81.1142 203° Southwest 388 447 26,000  Level Jacksonville Center
Sun 09:06:57 PM 33.6431 -81.1636 203° Southwest 388 447 26,000  Level Jacksonville Center
Sun 09:07:57 PM 33.5497 -81.2103 201° Southwest 394 453 26,000  Level Jacksonville Center
Sun 09:08:57 PM 33.4503 -81.2569 203° Southwest 389 448 26,000  Level Jacksonville Center
Sun 09:09:57 PM 33.3506 -81.3086 202° Southwest 389 448 26,000  Level Jacksonville Center
Sun 09:10:57 PM 33.2489 -81.3575 201° Southwest 389 448 26,000  Level Jacksonville Center
Sun 09:11:57 PM 33.1494 -81.4039 203° Southwest 395 455 26,000  Level Jacksonville Center
Sun 09:12:57 PM 33.0478 -81.4553 202° Southwest 395 455 26,000  Level Jacksonville Center
Sun 09:13:57 PM 32.9458 -81.5039 202° Southwest 390 449 26,000  Level Jacksonville Center
Sun 09:14:57 PM 32.8464 -81.5525 202° Southwest 390 449 26,000  Level Jacksonville Center
Sun 09:15:57 PM 32.7444 -81.6008 202° Southwest 390 449 26,000  Level Jacksonville Center
Sun 09:16:57 PM 32.6428 -81.6492 202° Southwest 390 449 26,000  Level Jacksonville Center
Sun 09:17:57 PM 32.5306 -81.7025 202° Southwest 395 455 26,000  Level Jacksonville Center
Sun 09:18:57 PM 32.4267 -81.7531 200° South 395 455 26,000  Level Jacksonville Center
Sun 09:19:57 PM 32.3331 -81.7936 190° South 395 455 26,000  Level Jacksonville Center
Sun 09:20:57 PM 32.2081 -81.8197 190° South 406 467 26,000  Level Jacksonville Center
Sun 09:21:57 PM 32.1058 -81.8406 191° South 411 473 26,000  Level Jacksonville Center
Sun 09:22:57 PM 31.9808 -81.8689 191° South 417 480 26,000  Level Jacksonville Center
Sun 09:23:57 PM 31.8661 -81.8944 190° South 417 480 26,000  Level Jacksonville Center
Sun 09:24:57 PM 31.7661 -81.9150 191° South 417 480 26,000  Level Jacksonville Center
Sun 09:25:57 PM 31.6369 -81.9433 190° South 417 480 26,000  Level Jacksonville Center
Sun 09:26:57 PM 31.5222 -81.9664 190° South 424 488 26,000  Level Jacksonville Center
Sun 09:27:57 PM 31.4200 -81.9869 190° South 431 496 26,000  Level Jacksonville Center
Sun 09:28:57 PM 31.3011 -82.0125 189° South 435 501 26,000  Level Jacksonville Center
Sun 09:29:57 PM 31.1844 -82.0353 191° South 435 501 26,000  Level Jacksonville Center
Sun 09:30:57 PM 31.0697 -82.0606 189° South 430 495 26,000  Level Jacksonville Center
Sun 09:31:57 PM 30.9508 -82.0833 190° South 430 495 26,000  Level Jacksonville Center
Sun 09:32:57 PM 30.8361 -82.1064 190° South 430 495 26,000  Level Jacksonville Center
Sun 09:33:57 PM 30.7047 -82.1339 191° South 435 501 26,000  Level Jacksonville Center
Sun 09:34:57 PM 30.5900 -82.1589 189° South 435 501 26,000  Level Jacksonville Center
Sun 09:35:57 PM 30.4733 -82.1792 193° South 425 489 26,000  Level Jacksonville Center
Sun 09:36:57 PM 30.3608 -82.2089 204° Southwest 425 489 26,000  Level Jacksonville Center
Sun 09:37:58 PM 30.2567 -82.2625 204° Southwest 419 482 26,000  Level Jacksonville Center
Sun 09:38:58 PM 30.1503 -82.3161 190° South 419 482 26,000  Level Jacksonville Center
Sun 09:39:57 PM 30.0314 -82.3408 180° South 424 488 26,000  Level Jacksonville Center
Sun 09:40:57 PM 29.9103 -82.3414 182° South 429 494 26,000  Level Jacksonville Center
Sun 09:41:58 PM 29.7914 -82.3469 181° South 429 494 26,000  Level Jacksonville Center
Sun 09:42:58 PM 29.6683 -82.3500 180° South 429 494 26,000  Level Jacksonville Center
Sun 09:43:57 PM 29.5472 -82.3506 174° South 434 499 26,000  Level Jacksonville Center
Sun 09:44:58 PM 29.4261 -82.3369 175° South 441 507 26,000 -595 Level Jacksonville Center
Sun 09:45:58 PM 29.3028 -82.3233 175° South 441 507 24,800 -1,361 Descending Jacksonville Center
Sun 09:46:57 PM 29.1964 -82.3122 174° South 441 507 23,300 -2,050 Descending Jacksonville Center
Sun 09:47:58 PM 29.0794 -82.2986 174° South 434 499 20,700 -2,777 Descending Jacksonville Center
Sun 09:48:58 PM 28.9686 -82.2850 174° South 417 480 17,700 -2,522 Descending Jacksonville Center
Sun 09:51:25 PM 28.6833 -82.2500 180° South 383 441 12,000 -1,942 Descending Tampa TRACON
Sun 09:52:25 PM 28.5833 -82.2500 196° South 376 433 11,000 -550 Descending Tampa TRACON
Sun 09:53:25 PM 28.4833 -82.2833 196° South 370 426 10,900 -50 Descending Tampa TRACON
Sun 09:54:25 PM 28.3833 -82.3167 188° South 369 425 10,900 50 Level Tampa TRACON
Sun 09:55:26 PM 28.2833 -82.3333 190° South 356 410 11,000 -496 Climbing Tampa TRACON
Sun 09:56:26 PM 28.2000 -82.3500 199° South 310 357 9,900 -1,286 Descending Tampa TRACON
Sun 09:57:32 PM 28.1167 -82.3833 190° South 295 339 8,300 -1,550 Descending Tampa TRACON
Sun 09:58:26 PM 28.0333 -82.4000 192° South 284 327 6,800 -1,550 Descending Tampa TRACON
Sun 09:59:32 PM 27.9667 -82.4167 180° South 283 326 5,200 -1,524 Descending Tampa TRACON
Sun 10:00:32 PM 27.8833 -82.4167 180° South 277 319 3,600 -1,600 Descending Tampa TRACON

Login

Don't have an account? Register now (free) for customized features, flight alerts, and more!